sensor_id;sensor_type;location;lat;lon;timestamp;P1;durP1;ratioP1;P2;durP2;ratioP2
28170;SDS011;15458;53.346;-1.688;2024-01-11T00:02:16;9.57;;;2.63;;
28170;SDS011;15458;53.346;-1.688;2024-01-11T00:04:43;6.20;;;2.42;;
28170;SDS011;15458;53.346;-1.688;2024-01-11T00:07:09;6.68;;;2.45;;
28170;SDS011;15458;53.346;-1.688;2024-01-11T00:09:41;6.68;;;2.72;;
28170;SDS011;15458;53.346;-1.688;2024-01-11T00:12:07;10.02;;;2.60;;
28170;SDS011;15458;53.346;-1.688;2024-01-11T00:14:34;12.57;;;3.42;;
28170;SDS011;15458;53.346;-1.688;2024-01-11T00:17:00;9.55;;;2.90;;
28170;SDS011;15458;53.346;-1.688;2024-01-11T00:19:27;8.02;;;2.30;;
28170;SDS011;15458;53.346;-1.688;2024-01-11T00:21:52;14.88;;;3.75;;
28170;SDS011;15458;53.346;-1.688;2024-01-11T00:24:18;9.95;;;2.50;;
28170;SDS011;15458;53.346;-1.688;2024-01-11T00:26:44;12.30;;;2.85;;
28170;SDS011;15458;53.346;-1.688;2024-01-11T00:29:10;8.90;;;3.20;;
28170;SDS011;15458;53.346;-1.688;2024-01-11T00:31:35;8.73;;;2.40;;
28170;SDS011;15458;53.346;-1.688;2024-01-11T00:34:02;10.57;;;3.08;;
28170;SDS011;15458;53.346;-1.688;2024-01-11T00:36:28;11.68;;;3.03;;
28170;SDS011;15458;53.346;-1.688;2024-01-11T00:38:55;8.27;;;2.20;;
28170;SDS011;15458;53.346;-1.688;2024-01-11T00:41:21;11.63;;;2.30;;
28170;SDS011;15458;53.346;-1.688;2024-01-11T00:43:47;10.80;;;3.75;;
28170;SDS011;15458;53.346;-1.688;2024-01-11T00:46:12;7.55;;;2.10;;
28170;SDS011;15458;53.346;-1.688;2024-01-11T00:48:38;14.25;;;3.10;;
28170;SDS011;15458;53.346;-1.688;2024-01-11T00:51:04;10.93;;;2.08;;
28170;SDS011;15458;53.346;-1.688;2024-01-11T00:53:30;13.07;;;2.40;;
28170;SDS011;15458;53.346;-1.688;2024-01-11T00:55:57;5.70;;;2.00;;
28170;SDS011;15458;53.346;-1.688;2024-01-11T00:58:23;11.68;;;2.45;;
28170;SDS011;15458;53.346;-1.688;2024-01-11T01:00:48;7.57;;;1.75;;
28170;SDS011;15458;53.346;-1.688;2024-01-11T01:03:14;15.18;;;3.20;;
28170;SDS011;15458;53.346;-1.688;2024-01-11T01:05:41;10.75;;;2.50;;
28170;SDS011;15458;53.346;-1.688;2024-01-11T01:08:07;9.45;;;2.03;;
28170;SDS011;15458;53.346;-1.688;2024-01-11T01:10:33;12.98;;;2.13;;
28170;SDS011;15458;53.346;-1.688;2024-01-11T01:12:58;11.52;;;2.30;;
28170;SDS011;15458;53.346;-1.688;2024-01-11T01:15:24;6.40;;;1.85;;
28170;SDS011;15458;53.346;-1.688;2024-01-11T01:17:50;13.60;;;2.83;;
28170;SDS011;15458;53.346;-1.688;2024-01-11T01:20:15;17.58;;;2.72;;
28170;SDS011;15458;53.346;-1.688;2024-01-11T01:22:41;13.93;;;2.42;;
28170;SDS011;15458;53.346;-1.688;2024-01-11T01:25:07;11.77;;;2.58;;
28170;SDS011;15458;53.346;-1.688;2024-01-11T01:27:33;7.00;;;2.40;;
28170;SDS011;15458;53.346;-1.688;2024-01-11T01:29:58;12.93;;;2.28;;
28170;SDS011;15458;53.346;-1.688;2024-01-11T01:32:24;9.98;;;2.65;;
28170;SDS011;15458;53.346;-1.688;2024-01-11T01:34:50;7.25;;;2.25;;
28170;SDS011;15458;53.346;-1.688;2024-01-11T01:37:15;8.27;;;2.50;;
28170;SDS011;15458;53.346;-1.688;2024-01-11T01:39:41;15.25;;;3.80;;
28170;SDS011;15458;53.346;-1.688;2024-01-11T01:42:07;10.65;;;3.20;;
28170;SDS011;15458;53.346;-1.688;2024-01-11T01:44:33;7.60;;;2.63;;
28170;SDS011;15458;53.346;-1.688;2024-01-11T01:47:00;12.60;;;3.05;;
28170;SDS011;15458;53.346;-1.688;2024-01-11T01:49:27;13.77;;;3.40;;
28170;SDS011;15458;53.346;-1.688;2024-01-11T01:51:53;11.65;;;2.95;;
28170;SDS011;15458;53.346;-1.688;2024-01-11T01:54:20;8.77;;;2.83;;
28170;SDS011;15458;53.346;-1.688;2024-01-11T01:56:47;11.48;;;3.05;;
28170;SDS011;15458;53.346;-1.688;2024-01-11T01:59:13;6.90;;;2.60;;
28170;SDS011;15458;53.346;-1.688;2024-01-11T02:01:42;15.02;;;2.90;;
28170;SDS011;15458;53.346;-1.688;2024-01-11T02:04:08;10.10;;;2.67;;
28170;SDS011;15458;53.346;-1.688;2024-01-11T02:06:34;11.32;;;2.70;;
28170;SDS011;15458;53.346;-1.688;2024-01-11T02:09:01;7.85;;;2.80;;
28170;SDS011;15458;53.346;-1.688;2024-01-11T02:11:29;12.38;;;2.67;;
28170;SDS011;15458;53.346;-1.688;2024-01-11T02:13:55;7.47;;;2.78;;
28170;SDS011;15458;53.346;-1.688;2024-01-11T02:16:22;13.73;;;3.03;;
28170;SDS011;15458;53.346;-1.688;2024-01-11T02:18:49;9.32;;;2.80;;
28170;SDS011;15458;53.346;-1.688;2024-01-11T02:21:14;7.57;;;2.63;;
28170;SDS011;15458;53.346;-1.688;2024-01-11T02:26:26;10.38;;;2.45;;
28170;SDS011;15458;53.346;-1.688;2024-01-11T02:28:53;6.57;;;2.70;;
28170;SDS011;15458;53.346;-1.688;2024-01-11T02:31:19;15.18;;;2.60;;
28170;SDS011;15458;53.346;-1.688;2024-01-11T02:33:46;8.90;;;3.17;;
28170;SDS011;15458;53.346;-1.688;2024-01-11T02:36:13;9.40;;;2.90;;
28170;SDS011;15458;53.346;-1.688;2024-01-11T02:38:38;9.05;;;3.10;;
28170;SDS011;15458;53.346;-1.688;2024-01-11T02:41:07;8.52;;;3.80;;
28170;SDS011;15458;53.346;-1.688;2024-01-11T02:43:33;10.07;;;3.28;;
28170;SDS011;15458;53.346;-1.688;2024-01-11T02:46:03;9.63;;;3.15;;
28170;SDS011;15458;53.346;-1.688;2024-01-11T02:48:29;8.93;;;2.80;;
28170;SDS011;15458;53.346;-1.688;2024-01-11T02:50:55;13.43;;;3.10;;
28170;SDS011;15458;53.346;-1.688;2024-01-11T02:53:22;8.85;;;2.80;;
28170;SDS011;15458;53.346;-1.688;2024-01-11T02:55:48;8.65;;;2.90;;
28170;SDS011;15458;53.346;-1.688;2024-01-11T02:58:15;6.05;;;2.40;;
28170;SDS011;15458;53.346;-1.688;2024-01-11T03:00:41;10.18;;;2.60;;
28170;SDS011;15458;53.346;-1.688;2024-01-11T03:03:06;13.48;;;2.92;;
28170;SDS011;15458;53.346;-1.688;2024-01-11T03:05:32;10.40;;;2.30;;
28170;SDS011;15458;53.346;-1.688;2024-01-11T03:07:58;9.73;;;2.58;;
28170;SDS011;15458;53.346;-1.688;2024-01-11T03:10:25;10.60;;;2.80;;
28170;SDS011;15458;53.346;-1.688;2024-01-11T03:12:50;9.65;;;3.00;;
28170;SDS011;15458;53.346;-1.688;2024-01-11T03:15:16;5.07;;;2.05;;
28170;SDS011;15458;53.346;-1.688;2024-01-11T03:17:42;5.90;;;1.95;;
28170;SDS011;15458;53.346;-1.688;2024-01-11T03:20:09;9.20;;;2.78;;
28170;SDS011;15458;53.346;-1.688;2024-01-11T03:22:36;5.90;;;1.83;;
28170;SDS011;15458;53.346;-1.688;2024-01-11T03:25:02;5.32;;;2.33;;
28170;SDS011;15458;53.346;-1.688;2024-01-11T03:27:28;13.07;;;2.03;;
28170;SDS011;15458;53.346;-1.688;2024-01-11T03:29:53;8.18;;;2.30;;
28170;SDS011;15458;53.346;-1.688;2024-01-11T03:32:19;6.90;;;1.98;;
28170;SDS011;15458;53.346;-1.688;2024-01-11T03:34:45;6.75;;;1.52;;
28170;SDS011;15458;53.346;-1.688;2024-01-11T03:37:10;3.92;;;2.03;;
28170;SDS011;15458;53.346;-1.688;2024-01-11T03:39:36;3.22;;;1.17;;
28170;SDS011;15458;53.346;-1.688;2024-01-11T03:42:04;6.50;;;1.52;;
28170;SDS011;15458;53.346;-1.688;2024-01-11T03:44:31;7.22;;;2.25;;
28170;SDS011;15458;53.346;-1.688;2024-01-11T03:46:57;6.80;;;1.40;;
28170;SDS011;15458;53.346;-1.688;2024-01-11T03:49:22;4.70;;;1.20;;
28170;SDS011;15458;53.346;-1.688;2024-01-11T03:51:48;10.98;;;1.30;;
28170;SDS011;15458;53.346;-1.688;2024-01-11T03:54:14;5.28;;;1.63;;
28170;SDS011;15458;53.346;-1.688;2024-01-11T03:56:40;9.45;;;1.45;;
28170;SDS011;15458;53.346;-1.688;2024-01-11T03:59:06;5.15;;;1.13;;
28170;SDS011;15458;53.346;-1.688;2024-01-11T04:01:32;5.75;;;1.25;;
28170;SDS011;15458;53.346;-1.688;2024-01-11T04:03:58;4.68;;;1.27;;
28170;SDS011;15458;53.346;-1.688;2024-01-11T04:06:24;4.85;;;1.25;;
28170;SDS011;15458;53.346;-1.688;2024-01-11T04:08:49;8.57;;;1.50;;
28170;SDS011;15458;53.346;-1.688;2024-01-11T04:11:16;6.00;;;1.10;;
28170;SDS011;15458;53.346;-1.688;2024-01-11T04:13:42;9.88;;;2.67;;
28170;SDS011;15458;53.346;-1.688;2024-01-11T04:16:08;5.32;;;1.58;;
28170;SDS011;15458;53.346;-1.688;2024-01-11T04:18:34;6.35;;;1.52;;
28170;SDS011;15458;53.346;-1.688;2024-01-11T04:21:01;11.00;;;1.52;;
28170;SDS011;15458;53.346;-1.688;2024-01-11T04:23:26;5.53;;;1.40;;
28170;SDS011;15458;53.346;-1.688;2024-01-11T04:25:52;8.52;;;1.40;;
28170;SDS011;15458;53.346;-1.688;2024-01-11T04:28:18;2.85;;;1.20;;
28170;SDS011;15458;53.346;-1.688;2024-01-11T04:30:43;3.20;;;1.20;;
28170;SDS011;15458;53.346;-1.688;2024-01-11T04:33:09;5.75;;;1.00;;
28170;SDS011;15458;53.346;-1.688;2024-01-11T04:35:35;5.68;;;1.05;;
28170;SDS011;15458;53.346;-1.688;2024-01-11T04:38:02;6.53;;;1.02;;
28170;SDS011;15458;53.346;-1.688;2024-01-11T04:40:29;7.13;;;1.20;;
28170;SDS011;15458;53.346;-1.688;2024-01-11T04:42:55;1.70;;;1.05;;
28170;SDS011;15458;53.346;-1.688;2024-01-11T04:45:22;6.40;;;1.10;;
28170;SDS011;15458;53.346;-1.688;2024-01-11T04:47:50;3.90;;;1.30;;
28170;SDS011;15458;53.346;-1.688;2024-01-11T04:50:16;4.38;;;1.15;;
28170;SDS011;15458;53.346;-1.688;2024-01-11T04:52:42;7.45;;;1.10;;
28170;SDS011;15458;53.346;-1.688;2024-01-11T04:55:07;3.25;;;1.02;;
28170;SDS011;15458;53.346;-1.688;2024-01-11T04:57:33;4.50;;;1.67;;
28170;SDS011;15458;53.346;-1.688;2024-01-11T04:59:59;2.85;;;1.25;;
28170;SDS011;15458;53.346;-1.688;2024-01-11T05:02:24;4.03;;;1.63;;
28170;SDS011;15458;53.346;-1.688;2024-01-11T05:04:51;5.88;;;1.48;;
28170;SDS011;15458;53.346;-1.688;2024-01-11T05:07:16;8.40;;;1.55;;
28170;SDS011;15458;53.346;-1.688;2024-01-11T05:09:42;5.03;;;1.38;;
28170;SDS011;15458;53.346;-1.688;2024-01-11T05:12:08;4.47;;;1.45;;
28170;SDS011;15458;53.346;-1.688;2024-01-11T05:14:33;3.75;;;1.40;;
28170;SDS011;15458;53.346;-1.688;2024-01-11T05:16:59;6.03;;;1.42;;
28170;SDS011;15458;53.346;-1.688;2024-01-11T05:19:25;7.50;;;1.35;;
28170;SDS011;15458;53.346;-1.688;2024-01-11T05:21:51;10.80;;;1.52;;
28170;SDS011;15458;53.346;-1.688;2024-01-11T05:24:17;9.63;;;1.45;;
28170;SDS011;15458;53.346;-1.688;2024-01-11T05:26:42;16.65;;;1.52;;
28170;SDS011;15458;53.346;-1.688;2024-01-11T05:29:08;4.82;;;1.10;;
28170;SDS011;15458;53.346;-1.688;2024-01-11T05:31:34;3.22;;;1.17;;
28170;SDS011;15458;53.346;-1.688;2024-01-11T05:34:00;9.35;;;2.45;;
28170;SDS011;15458;53.346;-1.688;2024-01-11T05:36:27;6.85;;;1.50;;
28170;SDS011;15458;53.346;-1.688;2024-01-11T05:38:52;4.45;;;1.38;;
28170;SDS011;15458;53.346;-1.688;2024-01-11T05:41:18;5.78;;;1.02;;
28170;SDS011;15458;53.346;-1.688;2024-01-11T05:43:44;8.68;;;1.45;;
28170;SDS011;15458;53.346;-1.688;2024-01-11T05:46:09;5.53;;;1.88;;
28170;SDS011;15458;53.346;-1.688;2024-01-11T05:48:35;6.45;;;0.98;;
28170;SDS011;15458;53.346;-1.688;2024-01-11T05:51:01;12.25;;;4.72;;
28170;SDS011;15458;53.346;-1.688;2024-01-11T05:53:27;7.15;;;2.17;;
28170;SDS011;15458;53.346;-1.688;2024-01-11T05:55:53;5.88;;;1.75;;
28170;SDS011;15458;53.346;-1.688;2024-01-11T05:58:19;8.80;;;1.35;;
28170;SDS011;15458;53.346;-1.688;2024-01-11T06:00:45;1.33;;;0.93;;
28170;SDS011;15458;53.346;-1.688;2024-01-11T06:03:11;4.20;;;1.05;;
28170;SDS011;15458;53.346;-1.688;2024-01-11T06:05:38;3.15;;;0.73;;
28170;SDS011;15458;53.346;-1.688;2024-01-11T06:08:04;6.88;;;1.13;;
28170;SDS011;15458;53.346;-1.688;2024-01-11T06:10:30;6.50;;;1.25;;
28170;SDS011;15458;53.346;-1.688;2024-01-11T06:12:56;3.25;;;0.82;;
28170;SDS011;15458;53.346;-1.688;2024-01-11T06:15:22;5.88;;;1.00;;
28170;SDS011;15458;53.346;-1.688;2024-01-11T06:17:47;5.85;;;1.08;;
28170;SDS011;15458;53.346;-1.688;2024-01-11T06:20:13;3.92;;;0.90;;
28170;SDS011;15458;53.346;-1.688;2024-01-11T06:22:39;4.30;;;1.20;;
28170;SDS011;15458;53.346;-1.688;2024-01-11T06:25:05;5.70;;;1.00;;
28170;SDS011;15458;53.346;-1.688;2024-01-11T06:27:31;9.15;;;1.15;;
28170;SDS011;15458;53.346;-1.688;2024-01-11T06:29:56;4.40;;;1.30;;
28170;SDS011;15458;53.346;-1.688;2024-01-11T06:32:23;5.40;;;1.13;;
28170;SDS011;15458;53.346;-1.688;2024-01-11T06:34:49;5.80;;;1.65;;
28170;SDS011;15458;53.346;-1.688;2024-01-11T06:37:14;9.45;;;1.30;;
28170;SDS011;15458;53.346;-1.688;2024-01-11T06:39:43;3.47;;;1.27;;
28170;SDS011;15458;53.346;-1.688;2024-01-11T06:42:14;5.05;;;1.42;;
28170;SDS011;15458;53.346;-1.688;2024-01-11T06:44:40;7.82;;;1.33;;
28170;SDS011;15458;53.346;-1.688;2024-01-11T06:47:07;13.57;;;1.45;;
28170;SDS011;15458;53.346;-1.688;2024-01-11T06:49:33;4.35;;;1.10;;
28170;SDS011;15458;53.346;-1.688;2024-01-11T06:52:00;9.05;;;1.40;;
28170;SDS011;15458;53.346;-1.688;2024-01-11T06:54:25;7.60;;;1.10;;
28170;SDS011;15458;53.346;-1.688;2024-01-11T06:56:51;5.15;;;1.33;;
28170;SDS011;15458;53.346;-1.688;2024-01-11T06:59:17;7.05;;;1.20;;
28170;SDS011;15458;53.346;-1.688;2024-01-11T07:01:43;4.57;;;1.10;;
28170;SDS011;15458;53.346;-1.688;2024-01-11T07:04:09;2.95;;;1.13;;
28170;SDS011;15458;53.346;-1.688;2024-01-11T07:06:35;3.05;;;1.15;;
28170;SDS011;15458;53.346;-1.688;2024-01-11T07:09:00;6.97;;;1.38;;
28170;SDS011;15458;53.346;-1.688;2024-01-11T07:11:26;5.38;;;0.95;;
28170;SDS011;15458;53.346;-1.688;2024-01-11T07:13:52;5.40;;;1.42;;
28170;SDS011;15458;53.346;-1.688;2024-01-11T07:16:19;6.43;;;1.33;;
28170;SDS011;15458;53.346;-1.688;2024-01-11T07:18:45;5.53;;;1.50;;
28170;SDS011;15458;53.346;-1.688;2024-01-11T07:21:11;7.22;;;1.70;;
28170;SDS011;15458;53.346;-1.688;2024-01-11T07:23:36;4.70;;;1.30;;
28170;SDS011;15458;53.346;-1.688;2024-01-11T07:26:02;3.60;;;0.90;;
28170;SDS011;15458;53.346;-1.688;2024-01-11T07:28:28;5.18;;;1.35;;
28170;SDS011;15458;53.346;-1.688;2024-01-11T07:30:54;7.03;;;1.50;;
28170;SDS011;15458;53.346;-1.688;2024-01-11T07:33:20;12.38;;;2.03;;
28170;SDS011;15458;53.346;-1.688;2024-01-11T07:35:46;10.75;;;1.50;;
28170;SDS011;15458;53.346;-1.688;2024-01-11T07:38:12;12.20;;;2.15;;
28170;SDS011;15458;53.346;-1.688;2024-01-11T07:40:38;5.30;;;1.52;;
28170;SDS011;15458;53.346;-1.688;2024-01-11T07:43:04;7.00;;;1.88;;
28170;SDS011;15458;53.346;-1.688;2024-01-11T07:45:30;3.38;;;1.50;;
28170;SDS011;15458;53.346;-1.688;2024-01-11T07:47:55;7.13;;;2.00;;
28170;SDS011;15458;53.346;-1.688;2024-01-11T07:50:25;6.25;;;2.67;;
28170;SDS011;15458;53.346;-1.688;2024-01-11T07:52:52;8.10;;;2.15;;
28170;SDS011;15458;53.346;-1.688;2024-01-11T07:55:18;8.10;;;1.90;;
28170;SDS011;15458;53.346;-1.688;2024-01-11T07:57:48;7.35;;;2.08;;
28170;SDS011;15458;53.346;-1.688;2024-01-11T08:00:15;5.40;;;1.98;;
28170;SDS011;15458;53.346;-1.688;2024-01-11T08:02:42;5.07;;;1.95;;
28170;SDS011;15458;53.346;-1.688;2024-01-11T08:05:08;9.60;;;1.88;;
28170;SDS011;15458;53.346;-1.688;2024-01-11T08:07:34;11.00;;;3.63;;
28170;SDS011;15458;53.346;-1.688;2024-01-11T08:10:00;9.23;;;2.35;;
28170;SDS011;15458;53.346;-1.688;2024-01-11T08:12:26;5.05;;;2.05;;
28170;SDS011;15458;53.346;-1.688;2024-01-11T08:14:52;4.07;;;1.70;;
28170;SDS011;15458;53.346;-1.688;2024-01-11T08:17:18;3.17;;;1.70;;
28170;SDS011;15458;53.346;-1.688;2024-01-11T08:19:51;5.25;;;1.95;;
28170;SDS011;15458;53.346;-1.688;2024-01-11T08:22:16;3.20;;;1.70;;
28170;SDS011;15458;53.346;-1.688;2024-01-11T08:24:42;11.15;;;2.13;;
28170;SDS011;15458;53.346;-1.688;2024-01-11T08:27:08;10.20;;;2.15;;
28170;SDS011;15458;53.346;-1.688;2024-01-11T08:29:34;8.60;;;2.60;;
28170;SDS011;15458;53.346;-1.688;2024-01-11T08:32:01;8.45;;;3.20;;
28170;SDS011;15458;53.346;-1.688;2024-01-11T08:34:33;7.28;;;2.55;;
28170;SDS011;15458;53.346;-1.688;2024-01-11T08:37:01;10.30;;;2.70;;
28170;SDS011;15458;53.346;-1.688;2024-01-11T08:39:29;8.30;;;2.88;;
28170;SDS011;15458;53.346;-1.688;2024-01-11T08:41:56;12.40;;;3.15;;
28170;SDS011;15458;53.346;-1.688;2024-01-11T08:44:22;3.20;;;2.05;;
28170;SDS011;15458;53.346;-1.688;2024-01-11T08:46:48;5.15;;;2.40;;
28170;SDS011;15458;53.346;-1.688;2024-01-11T08:49:14;5.90;;;2.50;;
28170;SDS011;15458;53.346;-1.688;2024-01-11T08:51:39;5.78;;;2.17;;
28170;SDS011;15458;53.346;-1.688;2024-01-11T08:54:06;4.32;;;2.47;;
28170;SDS011;15458;53.346;-1.688;2024-01-11T08:56:34;7.05;;;3.30;;
28170;SDS011;15458;53.346;-1.688;2024-01-11T08:59:00;6.05;;;2.80;;
28170;SDS011;15458;53.346;-1.688;2024-01-11T09:01:26;4.65;;;2.47;;
28170;SDS011;15458;53.346;-1.688;2024-01-11T09:03:53;5.18;;;2.35;;
28170;SDS011;15458;53.346;-1.688;2024-01-11T09:06:20;5.80;;;2.10;;
28170;SDS011;15458;53.346;-1.688;2024-01-11T09:08:45;3.95;;;2.08;;
28170;SDS011;15458;53.346;-1.688;2024-01-11T09:11:11;4.55;;;1.88;;
28170;SDS011;15458;53.346;-1.688;2024-01-11T09:13:37;6.22;;;2.33;;
28170;SDS011;15458;53.346;-1.688;2024-01-11T09:16:02;2.55;;;1.70;;
28170;SDS011;15458;53.346;-1.688;2024-01-11T09:18:28;4.47;;;1.50;;
28170;SDS011;15458;53.346;-1.688;2024-01-11T09:20:55;2.50;;;1.38;;
28170;SDS011;15458;53.346;-1.688;2024-01-11T09:23:21;2.38;;;1.20;;
28170;SDS011;15458;53.346;-1.688;2024-01-11T09:25:47;3.58;;;1.60;;
28170;SDS011;15458;53.346;-1.688;2024-01-11T09:28:12;2.30;;;1.70;;
28170;SDS011;15458;53.346;-1.688;2024-01-11T09:30:38;3.00;;;1.08;;
28170;SDS011;15458;53.346;-1.688;2024-01-11T09:33:04;2.45;;;2.08;;
28170;SDS011;15458;53.346;-1.688;2024-01-11T09:35:31;2.60;;;2.10;;
28170;SDS011;15458;53.346;-1.688;2024-01-11T09:37:57;2.20;;;2.00;;
28170;SDS011;15458;53.346;-1.688;2024-01-11T09:40:23;3.65;;;1.80;;
28170;SDS011;15458;53.346;-1.688;2024-01-11T09:42:52;1.80;;;1.50;;
28170;SDS011;15458;53.346;-1.688;2024-01-11T09:45:18;1.20;;;1.10;;
28170;SDS011;15458;53.346;-1.688;2024-01-11T09:47:44;2.35;;;1.35;;
28170;SDS011;15458;53.346;-1.688;2024-01-11T09:50:16;4.20;;;1.42;;
28170;SDS011;15458;53.346;-1.688;2024-01-11T09:52:49;1.30;;;1.00;;
28170;SDS011;15458;53.346;-1.688;2024-01-11T09:55:16;5.20;;;1.10;;
28170;SDS011;15458;53.346;-1.688;2024-01-11T09:57:46;2.58;;;1.38;;
28170;SDS011;15458;53.346;-1.688;2024-01-11T10:00:13;3.70;;;1.77;;
28170;SDS011;15458;53.346;-1.688;2024-01-11T10:05:10;2.00;;;1.30;;
28170;SDS011;15458;53.346;-1.688;2024-01-11T10:07:39;3.20;;;1.48;;
28170;SDS011;15458;53.346;-1.688;2024-01-11T10:10:05;1.88;;;1.15;;
28170;SDS011;15458;53.346;-1.688;2024-01-11T10:12:34;7.38;;;1.67;;
28170;SDS011;15458;53.346;-1.688;2024-01-11T10:15:06;5.45;;;1.60;;
28170;SDS011;15458;53.346;-1.688;2024-01-11T10:17:34;4.60;;;1.70;;
28170;SDS011;15458;53.346;-1.688;2024-01-11T10:20:05;3.28;;;1.73;;
28170;SDS011;15458;53.346;-1.688;2024-01-11T10:22:35;5.20;;;2.17;;
28170;SDS011;15458;53.346;-1.688;2024-01-11T10:25:11;9.60;;;2.03;;
28170;SDS011;15458;53.346;-1.688;2024-01-11T10:27:39;12.48;;;2.50;;
28170;SDS011;15458;53.346;-1.688;2024-01-11T10:30:13;4.35;;;1.98;;
28170;SDS011;15458;53.346;-1.688;2024-01-11T10:32:48;4.75;;;1.75;;
28170;SDS011;15458;53.346;-1.688;2024-01-11T10:35:15;7.00;;;1.70;;
28170;SDS011;15458;53.346;-1.688;2024-01-11T10:37:43;5.55;;;1.73;;
28170;SDS011;15458;53.346;-1.688;2024-01-11T10:40:09;6.95;;;1.83;;
28170;SDS011;15458;53.346;-1.688;2024-01-11T10:42:42;8.80;;;2.08;;
28170;SDS011;15458;53.346;-1.688;2024-01-11T10:45:10;3.85;;;1.65;;
28170;SDS011;15458;53.346;-1.688;2024-01-11T10:50:15;4.47;;;1.23;;
28170;SDS011;15458;53.346;-1.688;2024-01-11T10:52:46;12.52;;;1.55;;
28170;SDS011;15458;53.346;-1.688;2024-01-11T10:55:16;12.38;;;3.33;;
28170;SDS011;15458;53.346;-1.688;2024-01-11T10:57:44;7.72;;;2.42;;
28170;SDS011;15458;53.346;-1.688;2024-01-11T11:00:13;8.50;;;2.00;;
28170;SDS011;15458;53.346;-1.688;2024-01-11T11:02:39;4.20;;;1.40;;
28170;SDS011;15458;53.346;-1.688;2024-01-11T11:05:06;10.75;;;2.10;;
28170;SDS011;15458;53.346;-1.688;2024-01-11T11:07:35;12.73;;;2.03;;
28170;SDS011;15458;53.346;-1.688;2024-01-11T11:10:02;6.38;;;1.63;;
28170;SDS011;15458;53.346;-1.688;2024-01-11T11:12:32;9.05;;;1.70;;
28170;SDS011;15458;53.346;-1.688;2024-01-11T11:14:59;6.72;;;2.20;;
28170;SDS011;15458;53.346;-1.688;2024-01-11T11:17:28;8.27;;;1.95;;
28170;SDS011;15458;53.346;-1.688;2024-01-11T11:19:56;6.22;;;1.85;;
28170;SDS011;15458;53.346;-1.688;2024-01-11T11:22:33;10.18;;;1.70;;
28170;SDS011;15458;53.346;-1.688;2024-01-11T11:25:03;11.45;;;3.03;;
28170;SDS011;15458;53.346;-1.688;2024-01-11T11:27:33;11.52;;;2.78;;
28170;SDS011;15458;53.346;-1.688;2024-01-11T11:30:00;11.52;;;2.75;;
28170;SDS011;15458;53.346;-1.688;2024-01-11T11:32:38;12.57;;;2.00;;
28170;SDS011;15458;53.346;-1.688;2024-01-11T11:35:08;9.30;;;1.20;;
28170;SDS011;15458;53.346;-1.688;2024-01-11T11:37:37;13.85;;;1.98;;
28170;SDS011;15458;53.346;-1.688;2024-01-11T11:40:04;7.53;;;2.20;;
28170;SDS011;15458;53.346;-1.688;2024-01-11T11:42:33;5.43;;;1.27;;
28170;SDS011;15458;53.346;-1.688;2024-01-11T11:45:00;8.05;;;1.48;;
28170;SDS011;15458;53.346;-1.688;2024-01-11T11:47:32;7.85;;;1.50;;
28170;SDS011;15458;53.346;-1.688;2024-01-11T11:52:34;13.00;;;2.05;;
28170;SDS011;15458;53.346;-1.688;2024-01-11T11:55:03;8.52;;;1.58;;
28170;SDS011;15458;53.346;-1.688;2024-01-11T11:57:30;5.97;;;1.17;;
28170;SDS011;15458;53.346;-1.688;2024-01-11T11:59:56;7.97;;;1.33;;
28170;SDS011;15458;53.346;-1.688;2024-01-11T12:02:24;13.90;;;2.17;;
28170;SDS011;15458;53.346;-1.688;2024-01-11T12:04:51;7.03;;;1.83;;
28170;SDS011;15458;53.346;-1.688;2024-01-11T12:07:17;6.75;;;1.40;;
28170;SDS011;15458;53.346;-1.688;2024-01-11T12:09:44;8.20;;;1.80;;
28170;SDS011;15458;53.346;-1.688;2024-01-11T12:12:12;6.05;;;1.42;;
28170;SDS011;15458;53.346;-1.688;2024-01-11T12:14:39;7.55;;;1.70;;
28170;SDS011;15458;53.346;-1.688;2024-01-11T12:17:08;6.13;;;1.67;;
28170;SDS011;15458;53.346;-1.688;2024-01-11T12:19:34;12.75;;;1.70;;
28170;SDS011;15458;53.346;-1.688;2024-01-11T12:21:59;4.75;;;1.73;;
28170;SDS011;15458;53.346;-1.688;2024-01-11T12:24:25;10.95;;;2.05;;
28170;SDS011;15458;53.346;-1.688;2024-01-11T12:26:52;7.47;;;1.42;;
28170;SDS011;15458;53.346;-1.688;2024-01-11T12:29:19;10.73;;;1.20;;
28170;SDS011;15458;53.346;-1.688;2024-01-11T12:31:46;9.45;;;1.55;;
28170;SDS011;15458;53.346;-1.688;2024-01-11T12:34:12;9.70;;;2.78;;
28170;SDS011;15458;53.346;-1.688;2024-01-11T12:36:40;12.02;;;2.38;;
28170;SDS011;15458;53.346;-1.688;2024-01-11T12:39:08;12.15;;;1.73;;
28170;SDS011;15458;53.346;-1.688;2024-01-11T12:41:39;15.80;;;1.70;;
28170;SDS011;15458;53.346;-1.688;2024-01-11T12:44:06;8.98;;;1.70;;
28170;SDS011;15458;53.346;-1.688;2024-01-11T12:46:32;7.88;;;1.90;;
28170;SDS011;15458;53.346;-1.688;2024-01-11T12:48:58;11.45;;;2.22;;
28170;SDS011;15458;53.346;-1.688;2024-01-11T12:51:25;8.18;;;1.60;;
28170;SDS011;15458;53.346;-1.688;2024-01-11T12:53:54;9.48;;;1.48;;
28170;SDS011;15458;53.346;-1.688;2024-01-11T12:56:23;15.25;;;2.40;;
28170;SDS011;15458;53.346;-1.688;2024-01-11T12:58:49;12.70;;;2.17;;
28170;SDS011;15458;53.346;-1.688;2024-01-11T13:01:15;6.97;;;2.13;;
28170;SDS011;15458;53.346;-1.688;2024-01-11T13:03:43;13.20;;;1.80;;
28170;SDS011;15458;53.346;-1.688;2024-01-11T13:06:14;8.57;;;1.40;;
28170;SDS011;15458;53.346;-1.688;2024-01-11T13:08:40;9.45;;;1.50;;
28170;SDS011;15458;53.346;-1.688;2024-01-11T13:11:26;16.52;;;2.40;;
28170;SDS011;15458;53.346;-1.688;2024-01-11T13:13:52;15.35;;;1.70;;
28170;SDS011;15458;53.346;-1.688;2024-01-11T13:16:18;15.45;;;2.20;;
28170;SDS011;15458;53.346;-1.688;2024-01-11T13:18:45;12.90;;;1.92;;
28170;SDS011;15458;53.346;-1.688;2024-01-11T13:21:11;17.20;;;1.83;;
28170;SDS011;15458;53.346;-1.688;2024-01-11T13:26:08;6.38;;;1.20;;
28170;SDS011;15458;53.346;-1.688;2024-01-11T13:28:33;10.15;;;1.85;;
28170;SDS011;15458;53.346;-1.688;2024-01-11T13:30:59;14.80;;;2.10;;
28170;SDS011;15458;53.346;-1.688;2024-01-11T13:33:27;16.50;;;2.00;;
28170;SDS011;15458;53.346;-1.688;2024-01-11T13:35:53;7.85;;;2.30;;
28170;SDS011;15458;53.346;-1.688;2024-01-11T13:38:19;14.18;;;2.05;;
28170;SDS011;15458;53.346;-1.688;2024-01-11T13:40:45;12.70;;;1.77;;
28170;SDS011;15458;53.346;-1.688;2024-01-11T13:43:10;13.75;;;2.17;;
28170;SDS011;15458;53.346;-1.688;2024-01-11T13:45:38;11.80;;;1.98;;
28170;SDS011;15458;53.346;-1.688;2024-01-11T13:48:06;10.77;;;1.80;;
28170;SDS011;15458;53.346;-1.688;2024-01-11T13:50:34;15.15;;;3.03;;
28170;SDS011;15458;53.346;-1.688;2024-01-11T13:53:02;9.85;;;2.00;;
28170;SDS011;15458;53.346;-1.688;2024-01-11T13:55:28;22.90;;;3.15;;
28170;SDS011;15458;53.346;-1.688;2024-01-11T13:58:03;17.98;;;2.35;;
28170;SDS011;15458;53.346;-1.688;2024-01-11T14:00:29;17.48;;;2.45;;
28170;SDS011;15458;53.346;-1.688;2024-01-11T14:02:54;17.20;;;2.20;;
28170;SDS011;15458;53.346;-1.688;2024-01-11T14:05:20;14.23;;;2.28;;
28170;SDS011;15458;53.346;-1.688;2024-01-11T14:07:49;9.90;;;1.92;;
28170;SDS011;15458;53.346;-1.688;2024-01-11T14:10:19;16.88;;;3.42;;
28170;SDS011;15458;53.346;-1.688;2024-01-11T14:12:45;5.45;;;1.70;;
28170;SDS011;15458;53.346;-1.688;2024-01-11T14:15:11;16.00;;;2.35;;
28170;SDS011;15458;53.346;-1.688;2024-01-11T14:17:36;9.63;;;2.05;;
28170;SDS011;15458;53.346;-1.688;2024-01-11T14:20:03;10.23;;;2.10;;
28170;SDS011;15458;53.346;-1.688;2024-01-11T14:22:37;6.72;;;1.50;;
28170;SDS011;15458;53.346;-1.688;2024-01-11T14:25:04;15.32;;;2.30;;
28170;SDS011;15458;53.346;-1.688;2024-01-11T14:27:32;16.90;;;2.60;;
28170;SDS011;15458;53.346;-1.688;2024-01-11T14:29:58;6.15;;;1.58;;
28170;SDS011;15458;53.346;-1.688;2024-01-11T14:32:24;11.30;;;2.25;;
28170;SDS011;15458;53.346;-1.688;2024-01-11T14:34:52;6.90;;;1.50;;
28170;SDS011;15458;53.346;-1.688;2024-01-11T14:37:18;17.17;;;1.98;;
28170;SDS011;15458;53.346;-1.688;2024-01-11T14:39:45;15.38;;;1.75;;
28170;SDS011;15458;53.346;-1.688;2024-01-11T14:42:14;21.17;;;1.63;;